EXS841 LFLB-EGNM
Flight info
| Callsign | EXS841 |
|---|---|
| Flight time | N/A |
| Altitude | 36000 |
| Route | BUSIL DCT AMORO DCT MOMIL DCT BAGBI DCT SIZZA DCT LAULY DCT BRY DCT CLM DCT KOPOR DCT VESAN DCT RATUK DCT SOVAT L613 SANDY UN601 LESTA N601 EMBOR Q4 TNT N57 DENBY DCT LBA |
| Aircraft | B738/M-SDE2E3FGHIRWXY/LB1 |
Departure
| Time | 2026-04-27 18:21 |
|---|---|
| Airport | Chambéry Aix les Bains airport (LFLB) |
Arrival
| Time | N/A |
|---|---|
| Airport | Leeds Bradford Airport (EGNM) |
| Time | Latitude | Longitude | Altitude | Speed | Heading |
|---|---|---|---|---|---|
| 2026-04-27 17:58 | 45.63937 | 5.88331 | 797 ft | 0 kts | 86° |
| 2026-04-27 18:15 | 45.63937 | 5.88320 | 790 ft | 2 kts | 83° |
| 2026-04-27 18:15 | 45.63935 | 5.88299 | 790 ft | 2 kts | 88° |
| 2026-04-27 18:15 | 45.63935 | 5.88277 | 789 ft | 2 kts | 98° |
| 2026-04-27 18:15 | 45.63940 | 5.88257 | 789 ft | 2 kts | 123° |
| 2026-04-27 18:16 | 45.63950 | 5.88241 | 788 ft | 2 kts | 145° |
| 2026-04-27 18:16 | 45.63963 | 5.88232 | 788 ft | 2 kts | 166° |
| 2026-04-27 18:16 | 45.63972 | 5.88230 | 788 ft | 1 kts | 179° |
| 2026-04-27 18:16 | 45.63977 | 5.88230 | 788 ft | 0 kts | 178° |
| 2026-04-27 18:17 | 45.63972 | 5.88230 | 788 ft | 2 kts | 178° |
| 2026-04-27 18:18 | 45.63902 | 5.88234 | 789 ft | 12 kts | 176° |
| 2026-04-27 18:18 | 45.63827 | 5.88241 | 790 ft | 9 kts | 176° |
| 2026-04-27 18:18 | 45.63791 | 5.88244 | 791 ft | 0 kts | 176° |
| 2026-04-27 18:18 | 45.63784 | 5.88245 | 791 ft | 2 kts | 179° |
| 2026-04-27 18:19 | 45.63763 | 5.88243 | 792 ft | 4 kts | 189° |
| 2026-04-27 18:19 | 45.63694 | 5.88236 | 791 ft | 16 kts | 177° |
| 2026-04-27 18:19 | 45.63541 | 5.88248 | 793 ft | 26 kts | 177° |
| 2026-04-27 18:19 | 45.63364 | 5.88262 | 796 ft | 21 kts | 176° |
| 2026-04-27 18:20 | 45.63228 | 5.88273 | 796 ft | 17 kts | 182° |
| 2026-04-27 18:20 | 45.63150 | 5.88168 | 796 ft | 16 kts | 262° |
| 2026-04-27 18:20 | 45.63184 | 5.88072 | 796 ft | 10 kts | 353° |
| 2026-04-27 18:20 | 45.63314 | 5.88058 | 797 ft | 47 kts | 356° |
| 2026-04-27 18:21 | 45.63916 | 5.88014 | 789 ft | 123 kts | 357° |
| 2026-04-27 18:21 | 45.64980 | 5.87939 | 1011 ft | 166 kts | 358° |
| 2026-04-27 18:21 | 45.66076 | 5.87866 | 1763 ft | 166 kts | 356° |
| 2026-04-27 18:21 | 45.67291 | 5.87763 | 1993 ft | 181 kts | 356° |
| 2026-04-27 18:22 | 45.67881 | 5.87713 | 2203 ft | 182 kts | 356° |
| 2026-04-27 18:22 | 45.68843 | 5.87635 | 2610 ft | 179 kts | 357° |
| 2026-04-27 18:22 | 45.70154 | 5.87528 | 2767 ft | 200 kts | 357° |
| 2026-04-27 18:22 | 45.71588 | 5.87414 | 3087 ft | 212 kts | 357° |
| 2026-04-27 18:23 | 45.73054 | 5.87305 | 3698 ft | 207 kts | 357° |
| 2026-04-27 18:23 | 45.74505 | 5.87204 | 4194 ft | 221 kts | 356° |
| 2026-04-27 18:23 | 45.75983 | 5.86609 | 5026 ft | 219 kts | 328° |
| 2026-04-27 18:23 | 45.77016 | 5.85152 | 5849 ft | 217 kts | 300° |
| 2026-04-27 18:24 | 45.77507 | 5.83006 | 6252 ft | 237 kts | 276° |
| 2026-04-27 18:24 | 45.77417 | 5.80640 | 6836 ft | 249 kts | 257° |
| 2026-04-27 18:24 | 45.76723 | 5.78366 | 7688 ft | 248 kts | 234° |
| 2026-04-27 18:24 | 45.75554 | 5.76743 | 8773 ft | 235 kts | 216° |
| 2026-04-27 18:25 | 45.74189 | 5.75407 | 9302 ft | 247 kts | 216° |
| 2026-04-27 18:25 | 45.72723 | 5.73943 | 9629 ft | 269 kts | 216° |
| 2026-04-27 18:25 | 45.71173 | 5.72444 | 10485 ft | 265 kts | 213° |
| 2026-04-27 18:25 | 45.69689 | 5.71087 | 11522 ft | 253 kts | 213° |
| 2026-04-27 18:26 | 45.68227 | 5.69684 | 12108 ft | 259 kts | 219° |
| 2026-04-27 18:26 | 45.67068 | 5.67763 | 12723 ft | 261 kts | 246° |
| 2026-04-27 18:26 | 45.66707 | 5.65198 | 13250 ft | 270 kts | 274° |
| 2026-04-27 18:26 | 45.67018 | 5.62558 | 13897 ft | 273 kts | 282° |
| 2026-04-27 18:27 | 45.67477 | 5.59954 | 14578 ft | 276 kts | 289° |
| 2026-04-27 18:27 | 45.68299 | 5.57467 | 15151 ft | 284 kts | 300° |
| 2026-04-27 18:27 | 45.69406 | 5.55028 | 15533 ft | 299 kts | 304° |
| 2026-04-27 18:27 | 45.70609 | 5.52561 | 15893 ft | 313 kts | 304° |
| 2026-04-27 18:28 | 45.71890 | 5.49916 | 16249 ft | 328 kts | 303° |
| 2026-04-27 18:28 | 45.73182 | 5.47189 | 16591 ft | 343 kts | 303° |
| 2026-04-27 18:28 | 45.74535 | 5.44289 | 16906 ft | 358 kts | 303° |
| 2026-04-27 18:28 | 45.75965 | 5.41301 | 17350 ft | 367 kts | 305° |
| 2026-04-27 18:29 | 45.77544 | 5.38471 | 17960 ft | 371 kts | 311° |
| 2026-04-27 18:29 | 45.79429 | 5.35879 | 18559 ft | 375 kts | 318° |
| 2026-04-27 18:29 | 45.81455 | 5.33549 | 19154 ft | 379 kts | 321° |
| 2026-04-27 18:29 | 45.83580 | 5.31301 | 19747 ft | 382 kts | 322° |
| 2026-04-27 18:30 | 45.85727 | 5.29085 | 20325 ft | 385 kts | 322° |
| 2026-04-27 18:30 | 45.87912 | 5.26832 | 20893 ft | 388 kts | 322° |
| 2026-04-27 18:30 | 45.90111 | 5.24549 | 21462 ft | 391 kts | 322° |
| 2026-04-27 18:30 | 45.92303 | 5.22255 | 22023 ft | 393 kts | 322° |
| 2026-04-27 18:31 | 45.94511 | 5.19929 | 22570 ft | 396 kts | 322° |
| 2026-04-27 18:31 | 45.96735 | 5.17575 | 23115 ft | 398 kts | 321° |
| 2026-04-27 18:31 | 45.98939 | 5.15233 | 23633 ft | 400 kts | 321° |
| 2026-04-27 18:31 | 46.01196 | 5.12826 | 24153 ft | 403 kts | 321° |
| 2026-04-27 18:32 | 46.03426 | 5.10398 | 24655 ft | 404 kts | 319° |
| 2026-04-27 18:32 | 46.05552 | 5.07770 | 25154 ft | 406 kts | 315° |
| 2026-04-27 18:32 | 46.07574 | 5.04966 | 25650 ft | 407 kts | 313° |
| 2026-04-27 18:32 | 46.09564 | 5.02046 | 26144 ft | 409 kts | 311° |
| 2026-04-27 18:33 | 46.11517 | 4.99110 | 26624 ft | 411 kts | 311° |
| 2026-04-27 18:33 | 46.13512 | 4.96088 | 27107 ft | 413 kts | 311° |
| 2026-04-27 18:33 | 46.15478 | 4.93112 | 27584 ft | 415 kts | 311° |
| 2026-04-27 18:33 | 46.17461 | 4.90115 | 28039 ft | 416 kts | 311° |
| 2026-04-27 18:34 | 46.19471 | 4.87088 | 28479 ft | 418 kts | 311° |
| 2026-04-27 18:34 | 46.21471 | 4.84079 | 28908 ft | 420 kts | 311° |
| 2026-04-27 18:34 | 46.23504 | 4.81025 | 29328 ft | 422 kts | 311° |
| 2026-04-27 18:34 | 46.25561 | 4.77939 | 29758 ft | 425 kts | 311° |
| 2026-04-27 18:35 | 46.27662 | 4.74895 | 30183 ft | 427 kts | 313° |
| 2026-04-27 18:35 | 46.29881 | 4.72040 | 30601 ft | 431 kts | 318° |
| 2026-04-27 18:35 | 46.32331 | 4.69430 | 31110 ft | 431 kts | 323° |
| 2026-04-27 18:35 | 46.34806 | 4.67096 | 31673 ft | 429 kts | 324° |
| 2026-04-27 18:36 | 46.37350 | 4.64831 | 32175 ft | 428 kts | 326° |
| 2026-04-27 18:36 | 46.39888 | 4.62623 | 32669 ft | 426 kts | 326° |
| 2026-04-27 18:36 | 46.42428 | 4.60422 | 33194 ft | 424 kts | 326° |
| 2026-04-27 18:36 | 46.44923 | 4.58279 | 33707 ft | 423 kts | 327° |
| 2026-04-27 18:37 | 46.47591 | 4.56380 | 34224 ft | 424 kts | 334° |
| 2026-04-27 18:37 | 46.50336 | 4.54968 | 34716 ft | 426 kts | 340° |
| 2026-04-27 18:37 | 46.53229 | 4.54008 | 35172 ft | 428 kts | 346° |
| 2026-04-27 18:37 | 46.56168 | 4.53540 | 35599 ft | 430 kts | 353° |
| 2026-04-27 18:38 | 46.59157 | 4.53567 | 36022 ft | 432 kts | 359° |
| 2026-04-27 18:38 | 46.62187 | 4.54115 | 36176 ft | 440 kts | 6° |
| 2026-04-27 18:38 | 46.68130 | 4.55934 | 36143 ft | 434 kts | 8° |
| 2026-04-27 18:39 | 46.74034 | 4.57706 | 36142 ft | 435 kts | 7° |
| 2026-04-27 18:39 | 46.79955 | 4.59110 | 36066 ft | 427 kts | 356° |
| 2026-04-27 18:40 | 46.82834 | 4.58650 | 36066 ft | 418 kts | 341° |
| 2026-04-27 18:40 | 46.85578 | 4.57300 | 36068 ft | 414 kts | 334° |
| 2026-04-27 18:40 | 46.90853 | 4.53890 | 36086 ft | 412 kts | 331° |
| 2026-04-27 18:41 | 46.96018 | 4.50369 | 36090 ft | 411 kts | 331° |
| 2026-04-27 18:41 | 47.01217 | 4.46873 | 36091 ft | 412 kts | 331° |
| 2026-04-27 18:42 | 47.05557 | 4.43995 | 36092 ft | 412 kts | 331° |
| 2026-04-27 18:42 | 47.11662 | 4.39974 | 36092 ft | 412 kts | 331° |
| 2026-04-27 18:43 | 47.16883 | 4.36540 | 36094 ft | 412 kts | 331° |
| 2026-04-27 18:43 | 47.22093 | 4.33108 | 36097 ft | 411 kts | 330° |
| 2026-04-27 18:44 | 47.27274 | 4.29688 | 36100 ft | 411 kts | 330° |
| 2026-04-27 18:44 | 47.32497 | 4.26231 | 36096 ft | 411 kts | 330° |
| 2026-04-27 18:45 | 47.37688 | 4.22790 | 36089 ft | 411 kts | 330° |
| 2026-04-27 18:45 | 47.42889 | 4.19336 | 36084 ft | 411 kts | 330° |
| 2026-04-27 18:46 | 47.48081 | 4.15879 | 36084 ft | 411 kts | 330° |
| 2026-04-27 18:46 | 47.53257 | 4.12425 | 36086 ft | 410 kts | 330° |
| 2026-04-27 18:47 | 47.58448 | 4.08957 | 36088 ft | 410 kts | 330° |
| 2026-04-27 18:47 | 47.63625 | 4.05497 | 36091 ft | 410 kts | 330° |
| 2026-04-27 18:48 | 47.68826 | 4.02013 | 36093 ft | 409 kts | 329° |
| 2026-04-27 18:48 | 47.73996 | 3.98542 | 36095 ft | 409 kts | 329° |
| 2026-04-27 18:49 | 47.79165 | 3.95066 | 36098 ft | 409 kts | 329° |
| 2026-04-27 18:49 | 47.84340 | 3.91575 | 36099 ft | 409 kts | 329° |
| 2026-04-27 18:50 | 47.89497 | 3.88090 | 36099 ft | 409 kts | 329° |
| 2026-04-27 18:50 | 47.94664 | 3.84589 | 36100 ft | 409 kts | 329° |
| 2026-04-27 18:51 | 47.99810 | 3.81094 | 36101 ft | 409 kts | 329° |
| 2026-04-27 18:51 | 48.04987 | 3.77571 | 36101 ft | 409 kts | 329° |
| 2026-04-27 18:52 | 48.10130 | 3.74064 | 36101 ft | 409 kts | 329° |
| 2026-04-27 18:53 | 48.17276 | 3.67525 | 36102 ft | 397 kts | 313° |
| 2026-04-27 18:53 | 48.21157 | 3.61703 | 36102 ft | 394 kts | 308° |
| 2026-04-27 18:54 | 48.24824 | 3.55664 | 36103 ft | 394 kts | 307° |
| 2026-04-27 18:54 | 48.28492 | 3.49583 | 36102 ft | 394 kts | 308° |
| 2026-04-27 18:55 | 48.32168 | 3.43525 | 36099 ft | 394 kts | 308° |
| 2026-04-27 18:55 | 48.35868 | 3.37448 | 36096 ft | 395 kts | 308° |
| 2026-04-27 18:56 | 48.39697 | 3.31531 | 36100 ft | 399 kts | 313° |
| 2026-04-27 18:56 | 48.44419 | 3.26975 | 36107 ft | 411 kts | 327° |
| 2026-04-27 18:57 | 48.49641 | 3.23502 | 36111 ft | 414 kts | 331° |
| 2026-04-27 18:57 | 48.54997 | 3.20202 | 36116 ft | 415 kts | 331° |
| 2026-04-27 18:58 | 48.60324 | 3.16889 | 36120 ft | 415 kts | 331° |
| 2026-04-27 18:58 | 48.65622 | 3.13537 | 36123 ft | 415 kts | 330° |
| 2026-04-27 18:59 | 48.70925 | 3.10145 | 36126 ft | 414 kts | 330° |
| 2026-04-27 18:59 | 48.76213 | 3.06741 | 36129 ft | 414 kts | 330° |
| 2026-04-27 19:00 | 48.81478 | 3.03339 | 36131 ft | 414 kts | 330° |
| 2026-04-27 19:00 | 48.86688 | 2.99660 | 36132 ft | 411 kts | 326° |
| 2026-04-27 19:01 | 48.91619 | 2.95410 | 36133 ft | 409 kts | 323° |
| 2026-04-27 19:01 | 48.96503 | 2.91023 | 36135 ft | 409 kts | 323° |
| 2026-04-27 19:02 | 49.01409 | 2.86641 | 36138 ft | 409 kts | 323° |
| 2026-04-27 19:02 | 49.06316 | 2.82292 | 36142 ft | 410 kts | 323° |
| 2026-04-27 19:03 | 49.11212 | 2.77967 | 36146 ft | 410 kts | 324° |
| 2026-04-27 19:03 | 49.16144 | 2.73610 | 36151 ft | 410 kts | 324° |
| 2026-04-27 19:04 | 49.21064 | 2.69255 | 36152 ft | 410 kts | 324° |
| 2026-04-27 19:04 | 49.26005 | 2.64871 | 36152 ft | 410 kts | 324° |
| 2026-04-27 19:05 | 49.30938 | 2.60485 | 36153 ft | 410 kts | 324° |
| 2026-04-27 19:05 | 49.35865 | 2.56094 | 36154 ft | 410 kts | 324° |
| 2026-04-27 19:06 | 49.40758 | 2.51723 | 36154 ft | 410 kts | 324° |
| 2026-04-27 19:06 | 49.45662 | 2.47332 | 36154 ft | 410 kts | 324° |
| 2026-04-27 19:07 | 49.50647 | 2.43066 | 36155 ft | 413 kts | 328° |
| 2026-04-27 19:07 | 49.56055 | 2.39837 | 36156 ft | 420 kts | 336° |
| 2026-04-27 19:08 | 49.61655 | 2.37282 | 36157 ft | 421 kts | 338° |
| 2026-04-27 19:08 | 49.67258 | 2.34839 | 36159 ft | 421 kts | 338° |
| 2026-04-27 19:09 | 49.72868 | 2.32357 | 36160 ft | 420 kts | 337° |
| 2026-04-27 19:09 | 49.78472 | 2.29834 | 36162 ft | 420 kts | 337° |
| 2026-04-27 19:10 | 49.84054 | 2.27292 | 36165 ft | 420 kts | 337° |
| 2026-04-27 19:10 | 49.89645 | 2.24730 | 36169 ft | 420 kts | 337° |
| 2026-04-27 19:11 | 49.95225 | 2.22164 | 36172 ft | 420 kts | 337° |
| 2026-04-27 19:11 | 50.00829 | 2.19579 | 36175 ft | 420 kts | 337° |
| 2026-04-27 19:12 | 50.06414 | 2.16997 | 36177 ft | 420 kts | 337° |
| 2026-04-27 19:12 | 50.11978 | 2.14419 | 36179 ft | 420 kts | 337° |
| 2026-04-27 19:13 | 50.17582 | 2.11815 | 36181 ft | 420 kts | 337° |
| 2026-04-27 19:13 | 50.23129 | 2.09231 | 36184 ft | 420 kts | 337° |
| 2026-04-27 19:14 | 50.28725 | 2.06618 | 36188 ft | 420 kts | 337° |
| 2026-04-27 19:14 | 50.34273 | 2.03896 | 36191 ft | 417 kts | 333° |
| 2026-04-27 19:15 | 50.39294 | 1.99724 | 36194 ft | 406 kts | 319° |
| 2026-04-27 19:15 | 50.43651 | 1.94187 | 36194 ft | 402 kts | 314° |
| 2026-04-27 19:16 | 50.47802 | 1.88423 | 36196 ft | 402 kts | 313° |
| 2026-04-27 19:16 | 50.51970 | 1.82611 | 36199 ft | 402 kts | 314° |
| 2026-04-27 19:17 | 50.56156 | 1.76818 | 36201 ft | 402 kts | 314° |
| 2026-04-27 19:17 | 50.60375 | 1.71000 | 36202 ft | 403 kts | 314° |
| 2026-04-27 19:18 | 50.64580 | 1.65202 | 36202 ft | 403 kts | 314° |
| 2026-04-27 19:18 | 50.68768 | 1.59417 | 36203 ft | 404 kts | 314° |
| 2026-04-27 19:19 | 50.72986 | 1.53571 | 36203 ft | 404 kts | 314° |
| 2026-04-27 19:19 | 50.77182 | 1.47743 | 36204 ft | 404 kts | 314° |
| 2026-04-27 19:20 | 50.81390 | 1.41887 | 36206 ft | 404 kts | 315° |
| 2026-04-27 19:20 | 50.85600 | 1.36018 | 36208 ft | 404 kts | 315° |
| 2026-04-27 19:21 | 50.89796 | 1.30153 | 36211 ft | 403 kts | 314° |
| 2026-04-27 19:21 | 50.93975 | 1.24299 | 36214 ft | 402 kts | 314° |
| 2026-04-27 19:22 | 50.98159 | 1.18421 | 36218 ft | 403 kts | 314° |
| 2026-04-27 19:22 | 51.02313 | 1.12570 | 36222 ft | 403 kts | 314° |
| 2026-04-27 19:23 | 51.06433 | 1.06542 | 36225 ft | 401 kts | 310° |
| 2026-04-27 19:23 | 51.10099 | 0.99895 | 36229 ft | 400 kts | 306° |
| 2026-04-27 19:24 | 51.13577 | 0.93031 | 36229 ft | 400 kts | 306° |
| 2026-04-27 19:24 | 51.17032 | 0.86163 | 36228 ft | 400 kts | 306° |
| 2026-04-27 19:25 | 51.20513 | 0.79278 | 36228 ft | 399 kts | 306° |
| 2026-04-27 19:25 | 51.23982 | 0.72434 | 36227 ft | 399 kts | 307° |
| 2026-04-27 19:26 | 51.27473 | 0.65546 | 36227 ft | 400 kts | 307° |
| 2026-04-27 19:26 | 51.31013 | 0.58733 | 36227 ft | 401 kts | 310° |
| 2026-04-27 19:27 | 51.34896 | 0.52431 | 36228 ft | 402 kts | 313° |
| 2026-04-27 19:27 | 51.38926 | 0.46254 | 36228 ft | 401 kts | 314° |
| 2026-04-27 19:28 | 51.42942 | 0.40071 | 36227 ft | 401 kts | 314° |
| 2026-04-27 19:28 | 51.46926 | 0.33867 | 36227 ft | 400 kts | 313° |
| 2026-04-27 19:29 | 51.50901 | 0.27626 | 36226 ft | 400 kts | 313° |
| 2026-04-27 19:29 | 51.54837 | 0.21415 | 36226 ft | 399 kts | 313° |
| 2026-04-27 19:30 | 51.58801 | 0.15136 | 36228 ft | 399 kts | 313° |
| 2026-04-27 19:30 | 51.62748 | 0.08870 | 36231 ft | 399 kts | 313° |
| 2026-04-27 19:31 | 51.66682 | 0.02609 | 36233 ft | 399 kts | 313° |
| 2026-04-27 19:31 | 51.70613 | -0.03665 | 36269 ft | 399 kts | 314° |
| 2026-04-27 19:32 | 51.74656 | -0.09790 | 36284 ft | 401 kts | 319° |
| 2026-04-27 19:32 | 51.79214 | -0.14913 | 36275 ft | 402 kts | 327° |
| 2026-04-27 19:33 | 51.84011 | -0.19475 | 36272 ft | 402 kts | 329° |
| 2026-04-27 19:33 | 51.88838 | -0.23967 | 36257 ft | 401 kts | 329° |
| 2026-04-27 19:34 | 51.93655 | -0.28506 | 36254 ft | 402 kts | 329° |
| 2026-04-27 19:34 | 51.98461 | -0.33086 | 36257 ft | 402 kts | 328° |
| 2026-04-27 19:35 | 52.03247 | -0.37678 | 36257 ft | 401 kts | 328° |
| 2026-04-27 19:35 | 52.08018 | -0.42274 | 36197 ft | 399 kts | 329° |
| 2026-04-27 19:36 | 52.12745 | -0.46842 | 36169 ft | 396 kts | 329° |
| 2026-04-27 19:36 | 52.17118 | -0.51078 | 36219 ft | 395 kts | 329° |
| 2026-04-27 19:37 | 52.21848 | -0.55672 | 36246 ft | 396 kts | 329° |
| 2026-04-27 19:37 | 52.26510 | -0.60211 | 35850 ft | 389 kts | 329° |
| 2026-04-27 19:37 | 52.28822 | -0.62466 | 35385 ft | 389 kts | 329° |
| 2026-04-27 19:38 | 52.31139 | -0.64730 | 34913 ft | 389 kts | 329° |
| 2026-04-27 19:38 | 52.33458 | -0.66998 | 34416 ft | 390 kts | 329° |